createdAt,value
2019-03-24T00:00:05.930Z,106.10
2019-03-24T00:02:34.497Z,106.57
2019-03-24T00:05:03.200Z,101.13
2019-03-24T00:07:31.695Z,98.77
2019-03-24T00:10:00.323Z,107.30
2019-03-24T00:12:29.334Z,107.87
2019-03-24T00:14:57.759Z,104.70
2019-03-24T00:17:26.198Z,104.20
2019-03-24T00:19:54.619Z,100.67
2019-03-24T00:22:23.052Z,101.87
2019-03-24T00:24:51.466Z,108.80
2019-03-24T00:27:19.896Z,112.27
2019-03-24T00:29:48.337Z,101.93
2019-03-24T00:32:16.767Z,107.63
2019-03-24T00:34:45.210Z,106.83
2019-03-24T00:37:13.644Z,102.73
2019-03-24T00:39:42.064Z,106.70
2019-03-24T00:42:10.495Z,95.70
2019-03-24T00:44:38.920Z,106.53
2019-03-24T00:47:07.354Z,97.63
2019-03-24T00:49:35.761Z,111.07
2019-03-24T00:52:04.270Z,94.87
2019-03-24T00:54:32.704Z,103.03
2019-03-24T00:57:01.217Z,94.77
2019-03-24T00:59:29.658Z,100.97
2019-03-24T01:01:58.118Z,108.67
2019-03-24T01:04:26.614Z,102.93
2019-03-24T01:06:55.106Z,105.67
2019-03-24T01:09:23.526Z,106.13
2019-03-24T01:11:51.960Z,105.97
2019-03-24T01:14:20.417Z,103.30
2019-03-24T01:16:48.865Z,98.27
2019-03-24T01:19:17.285Z,105.23
2019-03-24T01:21:45.713Z,98.77
2019-03-24T01:24:14.148Z,105.47
2019-03-24T01:26:42.578Z,106.87
2019-03-24T01:29:10.998Z,103.87
2019-03-24T01:31:39.435Z,100.33
2019-03-24T01:34:07.859Z,98.70
2019-03-24T01:36:36.297Z,95.93
2019-03-24T01:39:06.757Z,108.43
2019-03-24T01:41:35.186Z,104.63
2019-03-24T01:44:03.764Z,101.60
2019-03-24T01:46:32.185Z,104.27
2019-03-24T01:49:00.626Z,98.60
2019-03-24T01:51:29.048Z,100.37
2019-03-24T01:53:57.481Z,98.73
2019-03-24T01:56:25.913Z,98.27
2019-03-24T01:58:54.334Z,98.03
2019-03-24T02:01:22.749Z,97.03
2019-03-24T02:03:51.177Z,93.93
2019-03-24T02:06:19.612Z,104.77
2019-03-24T02:08:48.050Z,93.53
2019-03-24T02:11:16.457Z,96.50
2019-03-24T02:13:44.913Z,96.40
2019-03-24T02:16:13.330Z,98.63
2019-03-24T02:18:41.765Z,98.67
2019-03-24T02:21:10.196Z,100.00
2019-03-24T02:23:38.654Z,100.93
2019-03-24T02:26:07.082Z,92.03
2019-03-24T02:28:35.509Z,100.80
2019-03-24T02:31:03.942Z,106.43
2019-03-24T02:33:32.391Z,105.73
2019-03-24T02:36:00.817Z,101.33
2019-03-24T02:38:29.321Z,104.03
2019-03-24T02:40:57.752Z,101.97
2019-03-24T02:43:26.184Z,96.07
2019-03-24T02:45:54.610Z,92.40
2019-03-24T02:48:23.038Z,103.60
2019-03-24T02:50:51.478Z,96.20
2019-03-24T02:53:19.907Z,95.97
2019-03-24T02:55:48.340Z,94.10
2019-03-24T02:58:16.761Z,93.10
2019-03-24T03:00:45.182Z,96.97
2019-03-24T03:03:13.622Z,97.80
2019-03-24T03:05:42.033Z,91.07
2019-03-24T03:08:10.527Z,94.13
2019-03-24T03:10:38.955Z,88.17
2019-03-24T03:13:07.402Z,87.40
2019-03-24T03:15:35.823Z,102.37
2019-03-24T03:18:04.327Z,86.33
2019-03-24T03:20:32.758Z,82.27
2019-03-24T03:23:01.258Z,85.57
2019-03-24T03:25:29.677Z,90.53
2019-03-24T03:27:58.143Z,84.20
2019-03-24T03:30:26.579Z,87.27
2019-03-24T03:32:55.001Z,82.30
2019-03-24T03:35:23.482Z,88.57
2019-03-24T03:37:51.925Z,89.40
2019-03-24T03:40:20.436Z,80.53
2019-03-24T03:42:48.973Z,74.80
2019-03-24T03:45:20.495Z,87.50
2019-03-24T03:47:48.910Z,82.67
2019-03-24T03:50:17.352Z,80.30
2019-03-24T03:52:45.770Z,82.97
2019-03-24T03:55:14.346Z,85.20
2019-03-24T03:57:42.757Z,76.00
2019-03-24T04:00:11.428Z,79.13
2019-03-24T04:02:39.866Z,73.00
2019-03-24T04:05:08.547Z,73.20
2019-03-24T04:07:36.960Z,71.37
2019-03-24T04:10:05.539Z,69.43
2019-03-24T04:12:33.960Z,71.07
2019-03-24T04:15:02.382Z,77.57
2019-03-24T04:17:30.850Z,74.30
2019-03-24T04:19:59.353Z,70.43
2019-03-24T04:22:27.827Z,74.10
2019-03-24T04:24:56.444Z,74.43
2019-03-24T04:27:24.862Z,65.67
2019-03-24T04:29:53.375Z,69.33
2019-03-24T04:32:21.800Z,71.10
2019-03-24T04:34:50.219Z,67.80
2019-03-24T04:37:18.639Z,66.67
2019-03-24T04:39:47.116Z,72.97
2019-03-24T04:42:15.538Z,71.97
2019-03-24T04:44:43.971Z,71.80
2019-03-24T04:47:16.515Z,69.97
2019-03-24T04:49:42.560Z,75.00
2019-03-24T04:52:10.991Z,68.77
2019-03-24T04:54:39.426Z,74.73
2019-03-24T04:57:07.871Z,71.47
2019-03-24T04:59:36.327Z,69.47
2019-03-24T05:02:04.820Z,65.60
2019-03-24T05:04:33.267Z,63.93
2019-03-24T05:07:01.712Z,71.80
2019-03-24T05:09:30.526Z,64.93
2019-03-24T05:11:58.956Z,71.70
2019-03-24T05:14:27.390Z,70.83
2019-03-24T05:16:55.805Z,69.70
2019-03-24T05:19:24.329Z,69.47
2019-03-24T05:21:52.734Z,66.73
2019-03-24T05:24:21.155Z,61.90
2019-03-24T05:26:49.582Z,65.73
2019-03-24T05:29:18.015Z,66.27
2019-03-24T05:31:46.446Z,65.37
2019-03-24T05:34:14.868Z,62.87
2019-03-24T05:36:44.025Z,68.50
2019-03-24T05:39:12.458Z,75.47
2019-03-24T05:41:40.887Z,64.93
2019-03-24T05:44:09.296Z,67.30
2019-03-24T05:46:37.723Z,63.33
2019-03-24T05:49:06.150Z,60.83
2019-03-24T05:51:34.591Z,60.63
2019-03-24T05:54:03.010Z,65.17
2019-03-24T05:56:31.456Z,63.03
2019-03-24T05:58:59.865Z,67.00
2019-03-24T06:01:28.299Z,66.97
2019-03-24T06:03:56.709Z,68.33
2019-03-24T06:06:25.169Z,63.37
2019-03-24T06:08:53.597Z,62.73
2019-03-24T06:11:22.036Z,63.50
2019-03-24T06:13:50.530Z,68.03
2019-03-24T06:16:18.972Z,61.77
2019-03-24T06:18:47.391Z,58.00
2019-03-24T06:21:16.074Z,66.03
2019-03-24T06:23:44.585Z,69.87
2019-03-24T06:26:13.015Z,65.50
2019-03-24T06:28:41.462Z,59.57
2019-03-24T06:31:09.907Z,61.10
2019-03-24T06:33:38.339Z,63.77
2019-03-24T06:36:06.771Z,64.23
2019-03-24T06:38:35.206Z,64.97
2019-03-24T06:41:03.645Z,60.20
2019-03-24T06:43:32.067Z,66.13
2019-03-24T06:46:00.506Z,65.60
2019-03-24T06:48:28.933Z,59.83
2019-03-24T06:50:57.374Z,66.20
2019-03-24T06:53:25.797Z,67.93
2019-03-24T06:55:54.253Z,57.53
2019-03-24T06:58:22.701Z,60.57
2019-03-24T07:00:51.302Z,68.73
2019-03-24T07:03:19.741Z,72.07
2019-03-24T07:05:48.255Z,61.73
2019-03-24T07:08:16.678Z,58.67
2019-03-24T07:10:45.136Z,61.27
2019-03-24T07:13:13.570Z,62.63
2019-03-24T07:15:41.996Z,61.57
2019-03-24T07:18:10.444Z,62.50
2019-03-24T07:20:38.869Z,75.90
2019-03-24T07:23:07.316Z,69.83
2019-03-24T07:25:35.746Z,65.73
2019-03-24T07:28:04.207Z,69.93
2019-03-24T07:30:32.640Z,68.00
2019-03-24T07:33:06.780Z,68.27
2019-03-24T07:35:35.215Z,61.17
2019-03-24T07:38:03.653Z,64.33
2019-03-24T07:40:32.072Z,65.30
2019-03-24T07:43:00.766Z,73.13
2019-03-24T07:45:29.198Z,72.77
2019-03-24T07:47:57.633Z,75.33
2019-03-24T07:50:26.086Z,77.10
2019-03-24T07:52:54.574Z,77.53
2019-03-24T07:55:22.987Z,92.53
2019-03-24T07:57:51.418Z,90.83
2019-03-24T08:00:36.214Z,93.57
2019-03-24T08:03:04.892Z,92.80
2019-03-24T08:05:33.386Z,84.97
2019-03-24T08:08:01.831Z,100.83
2019-03-24T08:10:30.265Z,87.60
2019-03-24T08:12:58.722Z,95.50
2019-03-24T08:15:27.142Z,84.47
2019-03-24T08:17:55.645Z,80.73
2019-03-24T08:20:24.071Z,81.83
2019-03-24T08:22:52.525Z,83.13
2019-03-24T08:25:20.963Z,87.60
2019-03-24T08:27:49.416Z,94.53
2019-03-24T08:30:20.938Z,87.40
2019-03-24T08:32:49.376Z,89.17
2019-03-24T08:35:17.898Z,83.67
2019-03-24T08:37:46.400Z,85.30
2019-03-24T08:40:14.882Z,77.60
2019-03-24T08:42:43.497Z,85.73
2019-03-24T08:45:14.993Z,80.93
2019-03-24T08:47:43.433Z,81.10
2019-03-24T08:50:11.944Z,85.00
2019-03-24T08:52:40.400Z,82.23
2019-03-24T08:55:08.829Z,80.60
2019-03-24T08:57:37.270Z,79.27
2019-03-24T09:00:06.836Z,78.17
2019-03-24T09:02:35.280Z,87.43
2019-03-24T09:05:05.233Z,82.43
2019-03-24T09:07:33.688Z,78.37
2019-03-24T09:10:02.184Z,75.67
2019-03-24T09:12:31.303Z,83.17
2019-03-24T09:14:59.850Z,76.53
2019-03-24T09:17:28.306Z,79.27
2019-03-24T09:19:58.267Z,71.90
2019-03-24T09:22:26.714Z,84.93
2019-03-24T09:24:55.151Z,79.90
2019-03-24T09:27:23.575Z,86.10
2019-03-24T09:29:52.055Z,87.30
2019-03-24T09:32:20.540Z,79.63
2019-03-24T09:34:48.967Z,81.40
2019-03-24T09:37:17.394Z,75.80
2019-03-24T09:39:45.828Z,82.23
2019-03-24T09:42:14.254Z,79.30
2019-03-24T09:44:42.714Z,78.40
2019-03-24T09:47:11.147Z,87.37
2019-03-24T09:49:39.587Z,70.23
2019-03-24T09:52:08.022Z,77.50
2019-03-24T09:54:36.467Z,83.53
2019-03-24T09:57:05.043Z,79.10
2019-03-24T09:59:33.499Z,74.70
2019-03-24T10:02:01.921Z,74.43
2019-03-24T10:04:30.349Z,79.90
2019-03-24T10:06:58.794Z,78.97
2019-03-24T10:09:27.237Z,71.97
2019-03-24T10:11:55.644Z,75.13
2019-03-24T10:14:24.086Z,81.23
2019-03-24T10:16:52.535Z,81.23
2019-03-24T10:19:20.988Z,80.27
2019-03-24T10:21:49.402Z,79.13
2019-03-24T10:24:17.853Z,75.80
2019-03-24T10:26:46.281Z,80.23
2019-03-24T10:29:14.731Z,66.90
2019-03-24T10:31:43.625Z,86.37
2019-03-24T10:34:12.049Z,76.07
2019-03-24T10:36:40.717Z,81.50
2019-03-24T10:39:09.150Z,71.43
2019-03-24T10:41:37.589Z,78.83
2019-03-24T10:44:06.069Z,73.60
2019-03-24T10:46:34.574Z,79.33
2019-03-24T10:49:03.166Z,71.83
2019-03-24T10:51:31.608Z,79.73
2019-03-24T10:54:00.048Z,75.63
2019-03-24T10:56:28.482Z,77.80
2019-03-24T10:58:56.918Z,75.50
2019-03-24T11:01:25.350Z,74.37
2019-03-24T11:03:53.795Z,75.63
2019-03-24T11:06:22.219Z,72.50
2019-03-24T11:08:50.743Z,79.10
2019-03-24T11:11:19.177Z,76.73
2019-03-24T11:13:47.870Z,76.40
2019-03-24T11:16:16.302Z,72.77
2019-03-24T11:18:44.755Z,72.53
2019-03-24T11:21:13.194Z,75.23
2019-03-24T11:23:41.628Z,74.43
2019-03-24T11:26:10.074Z,69.80
2019-03-24T11:28:38.497Z,82.57
2019-03-24T11:31:06.930Z,75.50
2019-03-24T11:33:35.364Z,71.03
2019-03-24T11:36:04.180Z,73.27
2019-03-24T11:38:32.605Z,72.23
2019-03-24T11:41:01.047Z,71.27
2019-03-24T11:43:29.518Z,76.43
2019-03-24T11:45:57.966Z,74.83
2019-03-24T11:48:26.379Z,73.23
2019-03-24T11:50:54.831Z,68.83
2019-03-24T11:53:23.325Z,73.03
2019-03-24T11:55:51.754Z,76.40
2019-03-24T11:58:20.178Z,77.53
2019-03-24T12:00:48.693Z,72.23
2019-03-24T12:03:17.109Z,67.83
2019-03-24T12:05:45.544Z,66.60
2019-03-24T12:08:14.007Z,66.67
2019-03-24T12:10:42.432Z,67.97
2019-03-24T12:13:10.958Z,69.00
2019-03-24T12:15:39.397Z,64.70
2019-03-24T12:18:07.889Z,67.07
2019-03-24T12:20:36.366Z,60.08
2019-03-24T12:23:04.794Z,62.70
2019-03-24T12:25:33.303Z,65.17
2019-03-24T12:28:01.717Z,65.87
2019-03-24T12:30:30.173Z,71.77
2019-03-24T12:32:58.615Z,62.00
2019-03-24T12:35:27.055Z,59.70
2019-03-24T12:37:55.474Z,61.55
2019-03-24T12:40:23.931Z,59.58
2019-03-24T12:42:52.353Z,61.48
2019-03-24T12:45:20.866Z,59.75
2019-03-24T12:47:49.374Z,61.28
2019-03-24T12:50:17.877Z,55.63
2019-03-24T12:52:46.309Z,59.73
2019-03-24T12:55:15.031Z,61.65
2019-03-24T12:57:44.255Z,65.70
2019-03-24T13:00:13.198Z,60.00
2019-03-24T13:02:41.692Z,59.35
2019-03-24T13:05:10.484Z,61.28
2019-03-24T13:07:39.008Z,62.45
2019-03-24T13:10:07.764Z,53.35
2019-03-24T13:12:36.453Z,54.13
2019-03-24T13:15:08.771Z,57.98
2019-03-24T13:17:37.329Z,56.77
2019-03-24T13:20:07.776Z,52.95
2019-03-24T13:22:36.455Z,53.52
2019-03-24T13:25:06.712Z,59.67
2019-03-24T13:27:35.180Z,61.15
2019-03-24T13:30:07.950Z,57.67
2019-03-24T13:32:36.378Z,53.73
2019-03-24T13:35:05.142Z,53.55
2019-03-24T13:37:33.587Z,51.40
2019-03-24T13:40:02.058Z,49.98
2019-03-24T13:42:30.568Z,55.38
2019-03-24T13:44:59.012Z,52.95
2019-03-24T13:47:27.455Z,53.02
2019-03-24T13:49:55.882Z,52.65
2019-03-24T13:52:24.409Z,54.05
2019-03-24T13:54:52.846Z,55.73
2019-03-24T13:57:21.711Z,50.95
2019-03-24T13:59:50.139Z,49.98
2019-03-24T14:02:18.652Z,52.73
2019-03-24T14:04:47.614Z,52.83
2019-03-24T14:07:16.206Z,47.35
2019-03-24T14:09:44.622Z,46.25
2019-03-24T14:12:13.051Z,49.65
2019-03-24T14:14:41.499Z,58.58
2019-03-24T14:17:09.945Z,53.75
2019-03-24T14:19:38.485Z,53.85
2019-03-24T14:22:06.997Z,51.63
2019-03-24T14:24:35.442Z,55.28
2019-03-24T14:27:03.878Z,48.90
2019-03-24T14:29:32.305Z,51.92
2019-03-24T14:32:00.744Z,52.25
2019-03-24T14:34:29.170Z,52.23
2019-03-24T14:36:57.619Z,53.85
2019-03-24T14:39:26.042Z,53.45
2019-03-24T14:41:54.472Z,51.60
2019-03-24T14:44:22.936Z,50.63
2019-03-24T14:46:51.361Z,51.83
2019-03-24T14:49:19.803Z,55.28
2019-03-24T14:51:48.229Z,52.30
2019-03-24T14:54:16.666Z,51.00
2019-03-24T14:56:45.099Z,55.80
2019-03-24T14:59:13.542Z,46.28
2019-03-24T15:01:41.988Z,50.43
2019-03-24T15:04:10.434Z,47.17
2019-03-24T15:06:38.878Z,51.75
2019-03-24T15:09:07.623Z,45.73
2019-03-24T15:11:36.046Z,51.20
2019-03-24T15:14:04.567Z,54.83
2019-03-24T15:16:32.987Z,49.18
2019-03-24T15:19:07.323Z,49.83
2019-03-24T15:21:35.757Z,44.53
2019-03-24T15:24:04.269Z,45.20
2019-03-24T15:26:32.696Z,49.67
2019-03-24T15:29:01.148Z,48.23
2019-03-24T15:31:29.593Z,47.55
2019-03-24T15:33:58.077Z,48.30
2019-03-24T15:36:26.504Z,48.58
2019-03-24T15:38:54.946Z,51.98
2019-03-24T15:41:23.390Z,45.85
2019-03-24T15:43:51.847Z,48.87
2019-03-24T15:46:20.303Z,52.27
2019-03-24T15:48:50.240Z,50.55
2019-03-24T15:51:18.985Z,48.17
2019-03-24T15:53:48.207Z,47.15
2019-03-24T15:56:16.633Z,49.00
2019-03-24T15:58:45.072Z,44.75
2019-03-24T16:01:13.552Z,48.45
2019-03-24T16:03:42.032Z,48.83
2019-03-24T16:06:13.080Z,49.63
2019-03-24T16:08:41.523Z,47.78
2019-03-24T16:11:09.968Z,46.63
2019-03-24T16:13:38.426Z,48.83
2019-03-24T16:16:06.840Z,49.35
2019-03-24T16:18:35.287Z,47.93
2019-03-24T16:21:08.553Z,47.10
2019-03-24T16:23:34.243Z,47.38
2019-03-24T16:26:02.687Z,46.65
2019-03-24T16:28:31.138Z,62.27
2019-03-24T16:30:59.621Z,74.65
2019-03-24T16:33:28.069Z,66.07
2019-03-24T16:35:56.507Z,63.80
2019-03-24T16:38:24.979Z,55.10
2019-03-24T16:40:53.459Z,55.25
2019-03-24T16:43:21.915Z,53.83
2019-03-24T16:45:50.590Z,51.77
2019-03-24T16:48:19.045Z,53.75
2019-03-24T16:50:47.464Z,56.65
2019-03-24T16:53:15.934Z,58.55
2019-03-24T16:55:44.360Z,57.25
2019-03-24T16:58:12.788Z,51.30
2019-03-24T17:00:41.244Z,50.35
2019-03-24T17:03:09.678Z,50.55
2019-03-24T17:05:38.122Z,48.60
2019-03-24T17:08:06.605Z,49.42
2019-03-24T17:10:35.042Z,48.28
2019-03-24T17:13:03.473Z,47.10
2019-03-24T17:15:31.927Z,47.62
2019-03-24T17:18:06.322Z,49.48
2019-03-24T17:20:34.765Z,49.50
2019-03-24T17:23:03.284Z,48.98
2019-03-24T17:25:32.722Z,48.20
2019-03-24T17:28:01.141Z,54.25
2019-03-24T17:30:29.593Z,51.15
2019-03-24T17:32:58.028Z,49.98
2019-03-24T17:35:26.469Z,51.88
2019-03-24T17:37:56.436Z,65.72
2019-03-24T17:40:24.880Z,55.58
2019-03-24T17:42:53.315Z,56.37
2019-03-24T17:45:21.767Z,54.50
2019-03-24T17:47:50.208Z,53.92
2019-03-24T17:50:18.805Z,56.48
2019-03-24T17:52:47.231Z,55.17
2019-03-24T17:55:26.842Z,56.25
2019-03-24T17:57:46.389Z,56.28
2019-03-24T18:00:19.174Z,62.20
2019-03-24T18:02:47.674Z,65.28
2019-03-24T18:05:16.124Z,61.35
2019-03-24T18:07:44.550Z,63.37
2019-03-24T18:10:13.070Z,56.37
2019-03-24T18:12:41.496Z,58.60
2019-03-24T18:15:10.696Z,62.85
2019-03-24T18:17:39.126Z,60.38
2019-03-24T18:20:09.396Z,58.83
2019-03-24T18:22:37.829Z,60.40
2019-03-24T18:25:07.727Z,58.07
2019-03-24T18:27:36.164Z,57.98
2019-03-24T18:30:07.951Z,61.60
2019-03-24T18:32:36.453Z,62.10
2019-03-24T18:35:09.622Z,57.87
2019-03-24T18:37:38.069Z,60.37
2019-03-24T18:40:10.766Z,58.63
2019-03-24T18:42:39.274Z,56.30
2019-03-24T18:45:09.647Z,54.00
2019-03-24T18:47:39.387Z,47.30
2019-03-24T18:50:11.698Z,57.97
2019-03-24T18:52:40.122Z,52.37
2019-03-24T18:55:09.319Z,48.40
2019-03-24T18:57:37.761Z,51.87
2019-03-24T19:00:13.226Z,48.77
2019-03-24T19:02:43.882Z,45.87
2019-03-24T19:05:12.542Z,48.50
2019-03-24T19:07:41.037Z,49.03
2019-03-24T19:10:11.112Z,52.33
2019-03-24T19:12:39.630Z,48.67
2019-03-24T19:15:10.875Z,46.03
2019-03-24T19:17:39.334Z,47.33
2019-03-24T19:20:09.687Z,45.80
2019-03-24T19:22:38.157Z,48.30
2019-03-24T19:25:09.089Z,45.27
2019-03-24T19:27:37.536Z,49.30
2019-03-24T19:30:09.198Z,48.07
2019-03-24T19:32:37.663Z,45.20
2019-03-24T19:35:07.903Z,45.90
2019-03-24T19:37:36.786Z,47.50
2019-03-24T19:40:08.537Z,51.87
2019-03-24T19:42:36.976Z,47.57
2019-03-24T19:45:05.850Z,51.33
2019-03-24T19:47:34.291Z,45.23
2019-03-24T19:50:02.740Z,50.13
2019-03-24T19:52:31.176Z,46.30
2019-03-24T19:54:59.595Z,46.33
2019-03-24T19:57:28.032Z,45.23
2019-03-24T19:59:56.466Z,47.27
2019-03-24T20:02:24.906Z,45.23
2019-03-24T20:04:55.230Z,45.13
2019-03-24T20:07:23.678Z,45.80
2019-03-24T20:09:52.138Z,44.80
2019-03-24T20:12:20.596Z,41.97
2019-03-24T20:14:49.016Z,52.50
2019-03-24T20:17:17.454Z,49.27
2019-03-24T20:19:45.867Z,48.93
2019-03-24T20:22:14.335Z,45.43
2019-03-24T20:24:42.781Z,53.50
2019-03-24T20:27:11.197Z,52.03
2019-03-24T20:29:39.630Z,48.90
2019-03-24T20:32:08.079Z,47.80
2019-03-24T20:34:36.527Z,47.40
2019-03-24T20:37:05.817Z,44.93
2019-03-24T20:39:34.340Z,43.60
2019-03-24T20:42:02.787Z,39.43
2019-03-24T20:44:31.245Z,41.57
2019-03-24T20:46:59.972Z,41.57
2019-03-24T20:49:28.478Z,46.13
2019-03-24T20:51:56.973Z,42.43
2019-03-24T20:54:25.448Z,45.47
2019-03-24T20:56:53.882Z,45.47
2019-03-24T20:59:22.316Z,43.83
2019-03-24T21:01:50.751Z,44.43
2019-03-24T21:04:20.323Z,46.90
2019-03-24T21:06:48.888Z,40.63
2019-03-24T21:09:17.310Z,38.40
2019-03-24T21:11:45.767Z,40.20
2019-03-24T21:14:14.194Z,36.00
2019-03-24T21:16:42.646Z,35.30
2019-03-24T21:19:11.097Z,37.80
2019-03-24T21:21:39.532Z,34.83
2019-03-24T21:24:07.979Z,36.30
2019-03-24T21:26:36.462Z,34.80
2019-03-24T21:29:04.980Z,35.37
2019-03-24T21:31:33.495Z,30.63
2019-03-24T21:34:01.934Z,32.57
2019-03-24T21:36:30.378Z,36.60
2019-03-24T21:38:58.822Z,38.30
2019-03-24T21:41:27.245Z,35.07
2019-03-24T21:43:55.684Z,36.33
2019-03-24T21:46:24.118Z,37.80
2019-03-24T21:48:52.559Z,42.13
2019-03-24T21:51:21.020Z,41.73
2019-03-24T21:53:49.478Z,40.33
2019-03-24T21:56:17.925Z,42.73
2019-03-24T21:58:46.378Z,37.77
2019-03-24T22:01:14.809Z,35.87
2019-03-24T22:03:43.257Z,37.50
2019-03-24T22:06:11.697Z,35.80
2019-03-24T22:08:40.215Z,37.63
2019-03-24T22:11:08.634Z,36.80
2019-03-24T22:13:37.085Z,37.40
2019-03-24T22:16:05.515Z,31.40
2019-03-24T22:18:33.950Z,35.60
2019-03-24T22:21:02.389Z,33.53
2019-03-24T22:23:30.823Z,35.60
2019-03-24T22:25:59.256Z,35.63
2019-03-24T22:28:27.707Z,32.43
2019-03-24T22:30:56.127Z,32.80
2019-03-24T22:33:24.572Z,35.00
2019-03-24T22:35:53.000Z,39.37
2019-03-24T22:38:21.458Z,32.60
2019-03-24T22:40:49.885Z,33.37
2019-03-24T22:43:18.326Z,33.40
2019-03-24T22:45:46.779Z,31.10
2019-03-24T22:48:15.203Z,31.63
2019-03-24T22:50:43.630Z,33.53
2019-03-24T22:53:12.089Z,32.83
2019-03-24T22:55:40.512Z,33.93
2019-03-24T22:58:08.974Z,35.20
2019-03-24T23:00:48.153Z,31.90
2019-03-24T23:03:16.595Z,29.30
2019-03-24T23:05:45.017Z,31.20
2019-03-24T23:08:13.464Z,31.73
2019-03-24T23:10:41.894Z,30.93
2019-03-24T23:13:10.346Z,28.13
2019-03-24T23:15:38.777Z,30.10
2019-03-24T23:18:07.225Z,28.00
2019-03-24T23:20:35.667Z,27.90
2019-03-24T23:23:04.077Z,28.37
2019-03-24T23:25:32.524Z,25.80
2019-03-24T23:28:00.955Z,28.03
2019-03-24T23:30:29.406Z,24.67
2019-03-24T23:32:57.839Z,25.63
2019-03-24T23:35:26.275Z,25.13
2019-03-24T23:37:54.703Z,24.33
2019-03-24T23:40:23.137Z,28.40
2019-03-24T23:42:51.550Z,22.90
2019-03-24T23:45:19.994Z,24.97
2019-03-24T23:47:48.429Z,25.87
2019-03-24T23:50:17.006Z,22.63
2019-03-24T23:52:45.445Z,23.27
2019-03-24T23:55:13.894Z,24.97
2019-03-24T23:57:42.308Z,24.60
